Time;durP1;ratioP1;P1;durP2;ratioP2;P2;SDS_P1;SDS_P2;PMS_P1;PMS_P2;Temp;Humidity;BMP_temperature;BMP_pressure;BME280_temperature;BME280_humidity;BME280_pressure;Samples;Min_cycle;Max_cycle;Signal;HPM_P1;HPM_P2
2021/08/25 00:02:10;;;;;;;9.13;3.98;;;;;;;10.80;80.69;97719.28;1665483;84;25858;-80
2021/08/25 00:04:41;;;;;;;7.22;4.00;;;;;;;10.77;80.85;97713.45;1665516;84;27387;-84
2021/08/25 00:07:09;;;;;;;8.13;4.33;;;;;;;10.78;81.04;97712.41;1665345;84;25723;-83
2021/08/25 00:09:39;;;;;;;7.67;4.10;;;;;;;10.81;81.22;97709.31;1665072;84;25859;-84
2021/08/25 00:12:08;;;;;;;9.75;4.65;;;;;;;10.79;81.17;97714.91;1665445;84;25762;-84
2021/08/25 00:14:37;;;;;;;11.78;5.65;;;;;;;10.74;81.25;97707.13;1665452;84;25703;-82
2021/08/25 00:17:04;;;;;;;7.33;5.22;;;;;;;10.76;81.50;97707.73;1665407;84;27371;-85
2021/08/25 00:19:31;;;;;;;9.75;5.70;;;;;;;10.76;81.55;97713.13;1665171;84;25812;-85
2021/08/25 00:21:58;;;;;;;9.03;5.50;;;;;;;10.75;81.60;97707.41;1665339;84;26343;-84
2021/08/25 00:24:24;;;;;;;12.25;6.33;;;;;;;10.72;81.60;97699.75;1665358;84;25980;-84
2021/08/25 00:26:51;;;;;;;10.28;5.22;;;;;;;10.71;81.66;97703.48;1665524;84;25783;-84
2021/08/25 00:29:18;;;;;;;8.23;5.15;;;;;;;10.71;81.70;97696.73;1665434;84;27407;-84
2021/08/25 00:31:45;;;;;;;7.60;4.40;;;;;;;10.69;81.62;97696.94;1665436;84;25818;-85
2021/08/25 00:34:12;;;;;;;10.32;4.97;;;;;;;10.69;81.62;97690.19;1665370;84;26375;-85
2021/08/25 00:36:39;;;;;;;10.80;5.15;;;;;;;10.68;81.53;97685.81;1664646;84;26172;-85
2021/08/25 00:39:05;;;;;;;8.60;4.75;;;;;;;10.67;81.50;97684.67;1664900;84;26420;-80
2021/08/25 00:41:32;;;;;;;6.78;4.25;;;;;;;10.64;81.23;97691.82;1665119;84;28172;-85
2021/08/25 00:43:59;;;;;;;8.00;4.65;;;;;;;10.55;81.22;97684.95;1664893;84;25567;-85
2021/08/25 00:46:30;;;;;;;6.97;4.25;;;;;;;10.52;81.29;97682.66;1665146;85;26352;-85
2021/08/25 00:49:00;;;;;;;8.65;4.05;;;;;;;10.51;81.38;97683.17;1665152;84;25779;-83
2021/08/25 00:51:27;;;;;;;9.00;4.28;;;;;;;10.50;81.38;97682.89;1665184;84;25278;-85
2021/08/25 00:53:56;;;;;;;6.80;4.10;;;;;;;10.50;81.52;97684.76;1665064;84;27377;-83
2021/08/25 00:56:24;;;;;;;10.23;4.97;;;;;;;10.51;81.59;97680.99;1664943;84;26373;-82
2021/08/25 00:58:51;;;;;;;8.88;4.97;;;;;;;10.53;81.60;97682.98;1664982;84;26553;-78
2021/08/25 01:01:53;;;;;;;8.58;5.00;;;;;;;10.56;81.73;97679.88;1665008;84;25780;-84
2021/08/25 01:04:43;;;;;;;10.40;5.20;;;;;;;10.58;81.78;97680.51;1665204;84;25849;-85
2021/08/25 01:07:14;;;;;;;9.68;5.67;;;;;;;10.52;81.75;97671.34;1665026;84;28196;-83
2021/08/25 01:09:41;;;;;;;6.90;5.33;;;;;;;10.53;81.96;97673.53;1664761;84;25701;-84
2021/08/25 01:12:09;;;;;;;20.25;8.28;;;;;;;10.54;81.98;97666.58;1665138;85;25235;-83
2021/08/25 01:14:40;;;;;;;17.30;8.58;;;;;;;10.52;82.00;97663.77;1665048;84;25747;-80
2021/08/25 01:17:10;;;;;;;13.32;8.53;;;;;;;10.58;82.24;97671.06;1665319;84;25290;-83
2021/08/25 01:20:00;;;;;;;14.00;9.58;;;;;;;10.64;82.32;97666.17;1665031;84;27393;-82
2021/08/25 01:22:27;;;;;;;17.62;10.00;;;;;;;10.72;82.35;97679.50;1664916;84;25730;-83
2021/08/25 01:24:55;;;;;;;16.15;8.23;;;;;;;10.76;82.29;97675.33;1664882;84;25805;-84
2021/08/25 01:27:25;;;;;;;11.15;8.13;;;;;;;10.78;82.22;97680.84;1665058;84;26197;-82
2021/08/25 01:29:52;;;;;;;11.95;7.12;;;;;;;10.81;82.23;97678.26;1665306;84;25668;-81
2021/08/25 01:32:19;;;;;;;9.78;7.30;;;;;;;10.82;82.21;97677.22;1665258;84;27423;-84
2021/08/25 01:34:53;;;;;;;10.38;7.55;;;;;;;10.81;82.27;97672.86;1665059;84;26165;-83
2021/08/25 01:37:27;;;;;;;14.33;6.72;;;;;;;10.83;82.24;97668.92;1664791;84;26305;-83
2021/08/25 01:39:56;;;;;;;16.07;7.42;;;;;;;10.83;82.24;97669.44;1664944;84;25748;-81
2021/08/25 01:42:23;;;;;;;7.90;6.78;;;;;;;10.82;82.27;97667.25;1664916;84;25819;-83
2021/08/25 01:44:51;;;;;;;19.15;7.62;;;;;;;10.78;82.14;97669.21;1664935;84;27376;-84
2021/08/25 01:47:19;;;;;;;14.95;6.78;;;;;;;10.78;82.14;97663.30;1664985;84;25808;-84
2021/08/25 01:49:47;;;;;;;23.18;7.70;;;;;;;10.79;82.11;97667.66;1664913;84;25821;-84
2021/08/25 01:52:15;;;;;;;9.78;6.72;;;;;;;10.76;82.08;97665.88;1664845;84;25789;-84
2021/08/25 01:54:50;;;;;;;12.68;6.03;;;;;;;10.76;82.13;97660.48;1665123;84;25807;-83
2021/08/25 01:57:17;;;;;;;11.03;7.10;;;;;;;10.74;82.10;97661.23;1665277;84;27390;-84
2021/08/25 01:59:44;;;;;;;10.65;7.08;;;;;;;10.72;82.11;97663.30;1665090;84;25788;-83
2021/08/25 02:02:11;;;;;;;11.33;7.00;;;;;;;10.73;82.13;97660.91;1664961;84;25819;-84
2021/08/25 02:04:38;;;;;;;14.43;7.45;;;;;;;10.76;82.10;97661.83;1666067;84;25816;-81
2021/08/25 02:07:05;;;;;;;9.90;7.12;;;;;;;10.78;81.99;97656.54;1674665;84;25736;-85
2021/08/25 02:09:32;;;;;;;13.70;7.53;;;;;;;10.69;81.77;97652.91;1676117;84;27361;-81
2021/08/25 02:11:58;;;;;;;14.33;7.62;;;;;;;10.54;81.78;97657.13;1678309;84;25788;-82
2021/08/25 02:14:25;;;;;;;10.20;7.55;;;;;;;10.49;82.01;97657.45;1665606;84;25840;-79
2021/08/25 02:16:52;;;;;;;9.93;6.65;;;;;;;10.48;82.11;97651.73;1665000;84;26143;-83
2021/08/25 02:19:18;;;;;;;11.18;7.10;;;;;;;10.48;82.21;97647.69;1646397;84;25760;-83
2021/08/25 02:21:45;;;;;;;11.08;7.35;;;;;;;10.53;82.26;97646.54;1665213;84;28118;-84
2021/08/25 02:24:11;;;;;;;9.58;5.75;;;;;;;10.52;82.16;97643.01;1667043;84;26602;-81
2021/08/25 02:26:38;;;;;;;8.30;6.47;;;;;;;10.49;82.14;97645.30;1679963;84;25704;-82
2021/08/25 02:29:05;;;;;;;11.75;6.70;;;;;;;10.49;82.19;97648.00;1665100;84;25839;-83
2021/08/25 02:31:32;;;;;;;13.00;7.35;;;;;;;10.48;82.24;97640.94;1665109;84;25856;-83
2021/08/25 02:33:58;;;;;;;11.03;7.90;;;;;;;10.46;82.31;97648.72;1665105;84;26802;-79
2021/08/25 02:36:25;;;;;;;10.95;8.15;;;;;;;10.45;82.29;97638.95;1665087;84;25822;-83
2021/08/25 02:38:52;;;;;;;11.10;6.85;;;;;;;10.43;82.37;97635.63;1664786;84;26345;-84
2021/08/25 02:41:20;;;;;;;9.30;5.75;;;;;;;10.43;82.43;97638.33;1676918;84;26157;-80
2021/08/25 02:43:47;;;;;;;7.83;5.60;;;;;;;10.50;82.37;97636.17;1678654;84;25732;-85
2021/08/25 02:46:13;;;;;;;8.73;5.62;;;;;;;10.54;82.22;97638.75;1667845;84;27380;-81
2021/08/25 02:48:41;;;;;;;9.88;6.58;;;;;;;10.59;82.10;97643.03;1665285;84;25263;-86
2021/08/25 02:51:09;;;;;;;11.83;7.33;;;;;;;10.62;82.01;97646.16;1665072;84;25949;-84
2021/08/25 02:53:35;;;;;;;13.60;6.25;;;;;;;10.64;81.81;97645.93;1665094;84;25791;-85
2021/08/25 02:56:02;;;;;;;11.40;6.75;;;;;;;10.64;81.73;97647.28;1665300;84;25867;-82
2021/08/25 02:58:29;;;;;;;7.62;5.65;;;;;;;10.64;81.65;97645.93;1672779;84;27418;-83
2021/08/25 03:00:56;;;;;;;10.05;6.58;;;;;;;10.62;81.54;97646.68;1672522;84;25875;-85
2021/08/25 03:03:22;;;;;;;7.53;5.95;;;;;;;10.60;81.58;97645.53;1665211;84;25728;-84
2021/08/25 03:05:49;;;;;;;9.20;6.08;;;;;;;10.60;81.44;97644.70;1680546;84;26138;-86
2021/08/25 03:08:15;;;;;;;10.25;6.37;;;;;;;10.58;81.36;97649.47;1665195;84;25767;-84
2021/08/25 03:10:42;;;;;;;8.53;6.78;;;;;;;10.55;81.36;97646.66;1680631;84;28171;-84
2021/08/25 03:13:09;;;;;;;9.20;6.55;;;;;;;10.51;81.37;97643.20;1665041;84;25804;-84
2021/08/25 03:15:36;;;;;;;10.53;6.75;;;;;;;10.51;81.38;97643.20;1665070;84;26295;-84
2021/08/25 03:18:03;;;;;;;11.63;7.10;;;;;;;10.53;81.26;97630.34;1665018;84;26349;-80
2021/08/25 03:20:30;;;;;;;11.43;7.28;;;;;;;10.52;81.11;97635.42;1664860;84;25818;-84
2021/08/25 03:22:57;;;;;;;8.70;6.47;;;;;;;10.51;81.07;97639.16;1665096;84;27397;-85
2021/08/25 03:25:23;;;;;;;10.15;6.37;;;;;;;10.50;81.01;97649.16;1665014;84;25889;-79
2021/08/25 03:27:50;;;;;;;14.05;7.58;;;;;;;10.50;80.80;97647.80;1665179;84;25306;-84
2021/08/25 03:30:17;;;;;;;9.73;7.20;;;;;;;10.42;80.65;97642.58;1680261;84;25741;-84
2021/08/25 03:32:43;;;;;;;10.65;7.47;;;;;;;10.37;80.75;97645.91;1667586;84;25780;-84
2021/08/25 03:35:10;;;;;;;9.15;7.60;;;;;;;10.33;80.78;97644.64;1667521;84;27853;-84
2021/08/25 03:37:38;;;;;;;12.95;8.25;;;;;;;10.32;80.83;97644.33;1669879;84;25811;-83
2021/08/25 03:40:08;;;;;;;11.60;7.92;;;;;;;10.26;80.80;97639.77;1664777;84;25946;-82
2021/08/25 03:42:35;;;;;;;13.08;7.92;;;;;;;10.27;80.91;97644.09;1665153;84;25887;-86
2021/08/25 03:45:02;;;;;;;16.60;8.00;;;;;;;10.25;80.87;97649.41;1665125;84;26449;-84
2021/08/25 03:47:31;;;;;;;11.78;7.30;;;;;;;10.19;80.92;97646.98;1665003;84;27378;-85
2021/08/25 03:49:57;;;;;;;12.80;8.23;;;;;;;10.13;80.93;97649.12;1664816;84;25737;-82
2021/08/25 03:52:24;;;;;;;14.07;8.60;;;;;;;10.08;81.09;97643.49;1664900;84;25804;-85
2021/08/25 03:54:50;;;;;;;14.78;8.45;;;;;;;10.09;81.08;97647.86;1665028;84;25733;-85
2021/08/25 03:57:17;;;;;;;12.23;8.08;;;;;;;10.10;81.07;97647.66;1665099;84;25778;-85
2021/08/25 03:59:44;;;;;;;12.07;8.05;;;;;;;10.09;81.11;97645.16;1664701;84;28102;-84
2021/08/25 04:02:10;;;;;;;13.60;8.23;;;;;;;10.07;81.18;97636.44;1664920;84;25804;-85
2021/08/25 04:04:37;;;;;;;16.80;9.75;;;;;;;10.03;81.04;97640.56;1665096;84;25793;-84
2021/08/25 04:07:03;;;;;;;15.48;8.63;;;;;;;9.92;80.98;97639.28;1665139;84;25660;-84
2021/08/25 04:09:30;;;;;;;12.95;9.30;;;;;;;9.93;81.19;97637.41;1665030;84;25949;-80
2021/08/25 04:11:57;;;;;;;14.07;9.40;;;;;;;9.96;81.23;97637.02;1665136;84;27493;-84
2021/08/25 04:14:23;;;;;;;12.47;9.18;;;;;;;9.98;81.23;97631.75;1672808;84;25286;-84
2021/08/25 04:16:50;;;;;;;13.38;9.43;;;;;;;9.99;81.21;97631.23;1669238;84;26257;-83
2021/08/25 04:19:18;;;;;;;13.60;9.13;;;;;;;10.03;81.26;97628.42;1664950;84;25728;-84
2021/08/25 04:21:44;;;;;;;14.78;9.20;;;;;;;10.04;81.20;97627.39;1665135;84;25769;-85
2021/08/25 04:24:11;;;;;;;13.03;10.28;;;;;;;10.02;81.26;97630.28;1664961;84;27367;-80
2021/08/25 04:26:37;;;;;;;13.38;9.13;;;;;;;10.04;81.33;97628.73;1664962;84;25810;-85
2021/08/25 04:29:04;;;;;;;14.18;9.25;;;;;;;10.07;81.25;97622.95;1665101;84;25740;-84
2021/08/25 04:31:31;;;;;;;13.48;10.15;;;;;;;10.07;81.28;97622.44;1665096;84;25765;-84
2021/08/25 04:33:57;;;;;;;16.10;9.93;;;;;;;10.05;81.31;97619.10;1665057;84;25692;-83
2021/08/25 04:36:24;;;;;;;17.42;10.50;;;;;;;10.03;81.36;97617.13;1665049;84;27474;-85
2021/08/25 04:38:51;;;;;;;18.48;11.95;;;;;;;10.04;81.50;97624.18;1664841;84;25776;-81
2021/08/25 04:41:17;;;;;;;18.07;12.68;;;;;;;10.04;81.48;97624.70;1665055;84;25766;-80
2021/08/25 04:43:44;;;;;;;18.10;12.20;;;;;;;10.02;81.44;97626.24;1665113;84;25731;-83
2021/08/25 04:46:16;;;;;;;20.72;12.10;;;;;;;10.03;81.50;97621.68;1665007;84;25779;-84
2021/08/25 04:48:43;;;;;;;;;;;;;;;10.03;81.54;97622.52;1667538;84;27394;-82
2021/08/25 04:51:11;;;;;;;16.25;10.50;;;;;;;10.07;81.68;97621.59;1664837;84;25783;-85
2021/08/25 04:53:39;;;;;;;13.43;9.85;;;;;;;10.07;81.74;97623.78;1664956;84;25768;-82
2021/08/25 04:56:06;;;;;;;15.63;9.48;;;;;;;10.08;81.66;97623.27;1665011;84;26559;-84
2021/08/25 04:58:34;;;;;;;13.38;9.60;;;;;;;10.09;81.63;97622.23;1679229;84;25831;-86
2021/08/25 05:01:03;;;;;;;19.00;10.98;;;;;;;10.08;81.71;97624.61;1666337;84;27428;-85
2021/08/25 05:03:30;;;;;;;26.00;13.75;;;;;;;10.09;81.75;97625.77;1671094;84;25704;-83
2021/08/25 05:05:56;;;;;;;15.60;11.30;;;;;;;10.13;81.81;97621.32;1665174;84;25829;-85
2021/08/25 05:08:23;;;;;;;13.78;10.80;;;;;;;10.16;81.76;97620.89;1665001;84;25788;-85
2021/08/25 05:10:50;;;;;;;13.38;9.85;;;;;;;10.19;81.71;97616.48;1646391;84;25846;-84
2021/08/25 05:13:17;;;;;;;16.17;10.70;;;;;;;10.20;81.68;97612.23;1665126;84;28259;-85
2021/08/25 05:15:45;;;;;;;14.35;11.50;;;;;;;10.22;81.60;97608.81;1664917;84;25782;-85
2021/08/25 05:18:12;;;;;;;16.55;11.57;;;;;;;10.23;81.65;97607.78;1665086;84;25787;-85
2021/08/25 05:20:38;;;;;;;14.87;10.13;;;;;;;10.25;81.71;97612.46;1665183;84;25751;-85
2021/08/25 05:23:05;;;;;;;16.80;10.88;;;;;;;10.28;81.74;97613.90;1665210;84;25789;-86
2021/08/25 05:25:32;;;;;;;16.67;11.03;;;;;;;10.30;81.70;97618.58;1665200;84;28414;-83
2021/08/25 05:27:59;;;;;;;17.37;11.08;;;;;;;10.31;81.72;97608.93;1664883;84;25768;-85
2021/08/25 05:30:26;;;;;;;18.32;10.80;;;;;;;10.35;81.78;97602.10;1665056;84;25681;-82
2021/08/25 05:32:53;;;;;;;16.12;11.08;;;;;;;10.34;81.58;97609.88;1665217;84;25716;-80
2021/08/25 05:35:21;;;;;;;20.12;11.88;;;;;;;10.39;81.71;97612.78;1665188;84;25716;-85
2021/08/25 05:37:50;;;;;;;14.78;10.82;;;;;;;10.44;81.58;97610.30;1665211;84;27381;-85
2021/08/25 05:40:17;;;;;;;14.93;11.03;;;;;;;10.50;81.54;97607.84;1637106;85;25828;-86
2021/08/25 05:42:45;;;;;;;16.30;11.03;;;;;;;10.54;81.50;97607.72;1665106;84;25737;-86
2021/08/25 05:45:13;;;;;;;17.42;11.35;;;;;;;10.55;81.58;97614.78;1665255;84;26217;-82
2021/08/25 05:47:40;;;;;;;16.00;11.33;;;;;;;10.60;81.55;97615.00;1665343;84;25780;-87
2021/08/25 05:50:09;;;;;;;15.13;10.80;;;;;;;10.64;81.49;97609.48;1665172;84;28204;-87
2021/08/25 05:52:35;;;;;;;17.60;10.85;;;;;;;10.62;81.38;97608.89;1665207;84;25831;-86
2021/08/25 05:55:03;;;;;;;16.00;9.65;;;;;;;10.64;81.38;97610.83;1664978;84;25750;-86
2021/08/25 05:57:29;;;;;;;15.15;9.90;;;;;;;10.61;81.12;97608.57;1665170;84;25680;-86
2021/08/25 05:59:57;;;;;;;15.60;9.85;;;;;;;10.55;80.96;97609.38;1665209;84;25929;-85
2021/08/25 06:02:24;;;;;;;15.98;9.30;;;;;;;10.60;81.23;97610.44;1665247;84;28127;-85
2021/08/25 06:04:51;;;;;;;14.15;10.13;;;;;;;10.64;81.20;97609.48;1664621;84;25835;-86
2021/08/25 06:07:17;;;;;;;14.87;10.00;;;;;;;10.65;80.97;97607.10;1664929;84;25732;-86
2021/08/25 06:09:44;;;;;;;15.60;10.28;;;;;;;10.67;80.94;97607.73;1665397;84;25729;-83
2021/08/25 06:12:11;;;;;;;18.23;10.90;;;;;;;10.74;80.96;97609.93;1664991;84;26475;-86
2021/08/25 06:14:38;;;;;;;15.55;10.88;;;;;;;10.79;81.09;97615.52;1665043;84;28246;-84
2021/08/25 06:17:05;;;;;;;16.90;10.88;;;;;;;10.81;81.28;97612.93;1665168;84;26047;-84
2021/08/25 06:19:32;;;;;;;14.20;9.85;;;;;;;10.89;81.17;97613.23;1665341;84;25736;-86
2021/08/25 06:21:58;;;;;;;13.55;9.70;;;;;;;10.89;80.82;97611.05;1665332;84;25927;-86
2021/08/25 06:24:25;;;;;;;16.32;10.35;;;;;;;10.89;80.79;97611.05;1665213;84;25803;-87
2021/08/25 06:26:52;;;;;;;14.78;11.12;;;;;;;10.95;80.87;97612.41;1665100;84;27273;-86
2021/08/25 06:29:18;;;;;;;15.05;11.18;;;;;;;10.99;80.89;97609.59;1665100;84;25753;-85
2021/08/25 06:31:45;;;;;;;16.37;10.38;;;;;;;11.08;80.96;97612.92;1665368;84;25786;-86
2021/08/25 06:34:11;;;;;;;15.18;10.23;;;;;;;11.15;80.79;97613.22;1665252;84;25791;-86
2021/08/25 06:36:38;;;;;;;15.75;9.88;;;;;;;11.19;80.50;97605.02;1665513;84;25809;-86
2021/08/25 06:39:05;;;;;;;14.38;9.95;;;;;;;11.25;80.62;97614.65;1665088;84;27369;-86
2021/08/25 06:41:31;;;;;;;13.60;9.85;;;;;;;11.33;80.83;97613.09;1664887;84;25726;-83
2021/08/25 06:43:58;;;;;;;14.87;9.50;;;;;;;11.41;80.85;97612.34;1665051;84;25802;-86
2021/08/25 06:46:24;;;;;;;13.30;8.85;;;;;;;11.41;80.42;97611.52;1665086;84;25665;-86
2021/08/25 06:48:51;;;;;;;16.17;9.03;;;;;;;11.48;80.49;97613.66;1665223;84;25335;-86
2021/08/25 06:51:17;;;;;;;14.80;9.80;;;;;;;11.60;80.45;97611.13;1665301;84;27362;-84
2021/08/25 06:53:44;;;;;;;13.45;8.75;;;;;;;11.68;80.32;97603.64;1664999;84;25771;-87
2021/08/25 06:56:11;;;;;;;11.12;8.28;;;;;;;11.78;80.24;97608.10;1665135;84;25856;-86
2021/08/25 06:58:37;;;;;;;12.15;8.73;;;;;;;11.86;79.85;97599.73;1664982;84;25704;-85
2021/08/25 07:01:04;;;;;;;14.18;8.88;;;;;;;11.95;79.62;97596.81;1665091;84;25292;-85
2021/08/25 07:03:30;;;;;;;14.15;8.85;;;;;;;12.03;79.64;97598.73;1665031;84;27294;-86
2021/08/25 07:05:57;;;;;;;14.23;8.70;;;;;;;12.12;79.70;97597.43;1665039;84;26510;-87
2021/08/25 07:08:24;;;;;;;12.30;8.25;;;;;;;12.19;79.40;97598.77;1664922;84;25761;-86
2021/08/25 07:10:50;;;;;;;11.90;8.15;;;;;;;12.27;78.99;97601.20;1664949;84;26395;-86
2021/08/25 07:13:17;;;;;;;12.53;8.05;;;;;;;12.31;79.00;97599.73;1665132;84;25737;-87
2021/08/25 07:15:43;;;;;;;11.75;7.92;;;;;;;12.35;79.00;97596.88;1665092;84;27396;-87
2021/08/25 07:18:10;;;;;;;13.72;8.08;;;;;;;12.40;78.72;97595.71;1665139;84;25775;-86
2021/08/25 07:20:37;;;;;;;11.20;7.85;;;;;;;12.46;78.81;97590.77;1661606;84;25751;-86
2021/08/25 07:23:03;;;;;;;11.80;8.15;;;;;;;12.58;78.59;97583.59;1650220;84;25849;-85
2021/08/25 07:25:30;;;;;;;14.00;8.55;;;;;;;12.69;78.18;97585.28;1665176;84;25952;-87
2021/08/25 07:27:57;;;;;;;10.75;7.62;;;;;;;12.78;78.24;97582.11;1665141;84;27428;-86
2021/08/25 07:30:23;;;;;;;14.47;8.15;;;;;;;12.87;78.09;97581.30;1664967;84;25867;-87
2021/08/25 07:32:50;;;;;;;11.85;7.22;;;;;;;13.00;78.13;97581.18;1665107;84;25819;-88
2021/08/25 07:35:17;;;;;;;15.85;8.05;;;;;;;13.10;77.82;97572.02;1665088;84;26413;-88
2021/08/25 07:37:43;;;;;;;16.60;8.30;;;;;;;13.16;77.76;97572.49;1665127;84;25725;-87
2021/08/25 07:40:11;;;;;;;16.30;7.17;;;;;;;13.31;77.41;97564.01;1665132;84;27420;-87
2021/08/25 07:42:37;;;;;;;13.65;7.30;;;;;;;13.42;77.13;97567.33;1665117;84;25816;-84
2021/08/25 07:45:05;;;;;;;17.77;7.87;;;;;;;13.70;76.70;97570.88;1665133;84;25903;-87
2021/08/25 07:47:32;;;;;;;13.53;6.80;;;;;;;14.00;76.31;97563.62;1665149;84;25743;-88
2021/08/25 07:49:58;;;;;;;11.83;7.78;;;;;;;14.17;75.61;97561.59;1645204;84;25793;-87
2021/08/25 07:52:25;;;;;;;11.90;7.00;;;;;;;14.24;75.10;97555.56;1665142;84;27373;-87
2021/08/25 07:54:51;;;;;;;12.18;7.00;;;;;;;14.53;75.47;97557.44;1664958;84;25848;-87
2021/08/25 07:57:18;;;;;;;11.95;7.10;;;;;;;14.75;74.37;97550.38;1665072;84;25744;-87
2021/08/25 07:59:45;;;;;;;14.07;6.80;;;;;;;14.78;74.83;97549.92;1665138;84;26707;-87
2021/08/25 08:02:11;;;;;;;12.37;7.10;;;;;;;14.77;74.51;97548.27;1664988;84;26053;-89
2021/08/25 08:04:38;;;;;;;12.20;6.70;;;;;;;14.76;74.64;97552.04;1665228;84;27289;-87
2021/08/25 08:07:04;;;;;;;9.70;5.95;;;;;;;14.75;74.14;97554.98;1665151;84;26405;-88
2021/08/25 08:09:31;;;;;;;11.00;6.53;;;;;;;14.64;73.89;97545.77;1664846;84;25747;-88
2021/08/25 08:11:57;;;;;;;10.48;6.67;;;;;;;14.50;73.78;97548.91;1664850;84;25799;-86
2021/08/25 08:14:25;;;;;;;12.47;7.15;;;;;;;14.38;73.88;97551.04;1665070;84;25724;-87
2021/08/25 08:16:55;;;;;;;13.75;6.42;;;;;;;14.38;73.73;97546.97;1665151;84;28036;-86
2021/08/25 08:19:22;;;;;;;12.23;6.37;;;;;;;14.38;73.41;97545.61;1664764;84;25736;-86
2021/08/25 08:21:50;;;;;;;12.25;7.10;;;;;;;14.37;73.08;97544.48;1665152;84;25802;-88
2021/08/25 08:24:17;;;;;;;15.50;7.72;;;;;;;14.34;73.18;97547.69;1665107;84;26681;-87
2021/08/25 08:26:46;;;;;;;18.12;8.10;;;;;;;14.27;73.25;97541.50;1665114;84;25354;-87
2021/08/25 08:29:13;;;;;;;13.62;7.53;;;;;;;14.24;73.23;97536.03;1665092;84;26843;-87
2021/08/25 08:31:40;;;;;;;12.55;6.95;;;;;;;14.19;73.06;97536.41;1664938;84;25687;-87
2021/08/25 08:34:07;;;;;;;14.33;7.58;;;;;;;14.11;73.09;97534.03;1665008;84;25767;-87
2021/08/25 08:36:34;;;;;;;12.30;6.60;;;;;;;14.12;72.89;97531.63;1664339;86;25808;-87
2021/08/25 08:39:00;;;;;;;16.32;7.33;;;;;;;14.11;72.85;97531.31;1664624;84;25295;-86
2021/08/25 08:41:27;;;;;;;11.90;6.85;;;;;;;14.12;72.65;97524.83;1664692;84;27619;-89
2021/08/25 08:43:54;;;;;;;14.07;7.33;;;;;;;14.17;72.56;97524.95;1664475;84;25826;-84
2021/08/25 08:46:23;;;;;;;11.68;5.83;;;;;;;14.19;72.05;97526.91;1664943;84;26443;-87
2021/08/25 08:48:52;;;;;;;10.93;6.47;;;;;;;14.18;71.56;97518.47;1665109;84;25907;-86
2021/08/25 08:51:23;;;;;;;16.10;7.15;;;;;;;14.18;71.84;97513.86;1665187;84;25284;-90
2021/08/25 08:53:52;;;;;;;8.98;5.92;;;;;;;14.26;71.73;97504.55;1664933;84;27458;-86
2021/08/25 08:56:20;;;;;;;11.60;6.87;;;;;;;14.35;71.57;97505.89;1665061;84;26564;-87
2021/08/25 08:58:48;;;;;;;11.88;6.70;;;;;;;14.41;71.33;97505.80;1665014;84;25876;-87
2021/08/25 09:01:14;;;;;;;13.80;6.62;;;;;;;14.44;71.45;97496.90;1664953;84;25804;-87
2021/08/25 09:03:42;;;;;;;15.98;6.95;;;;;;;14.53;71.04;97499.03;1665034;84;25733;-87
2021/08/25 09:06:09;;;;;;;14.80;7.30;;;;;;;14.58;70.85;97494.27;1665082;84;27437;-85
2021/08/25 09:08:39;;;;;;;12.47;6.97;;;;;;;14.62;70.56;97490.83;1664913;84;25793;-85
2021/08/25 09:11:15;;;;;;;15.20;6.80;;;;;;;14.69;70.32;97489.38;1665411;84;25876;-85
2021/08/25 09:13:49;;;;;;;12.58;6.47;;;;;;;14.71;69.90;97491.33;1668100;85;26449;-87
2021/08/25 09:16:36;;;;;;;12.75;7.20;;;;;;;14.66;69.99;97488.48;1668276;84;25777;-87
2021/08/25 09:19:14;;;;;;;14.35;6.90;;;;;;;14.59;69.63;97483.17;1656410;85;27326;-88
2021/08/25 09:21:45;;;;;;;13.43;7.50;;;;;;;14.48;69.91;97484.52;1656433;85;26361;-87
2021/08/25 09:24:13;;;;;;;12.40;6.75;;;;;;;14.47;70.07;97480.14;1656090;85;25906;-86
2021/08/25 09:27:07;;;;;;;13.00;7.33;;;;;;;14.46;70.24;97477.13;1656450;85;25774;-87
2021/08/25 09:29:38;;;;;;;18.12;7.65;;;;;;;14.50;70.21;97477.77;1654026;85;25903;-87
2021/08/25 09:32:18;;;;;;;13.05;6.75;;;;;;;14.59;69.69;97470.95;1656326;85;27435;-88
2021/08/25 09:34:44;;;;;;;13.72;6.62;;;;;;;14.65;69.18;97477.31;1656386;85;25760;-87
2021/08/25 09:37:15;;;;;;;11.88;7.42;;;;;;;14.61;69.22;97471.52;1655463;85;25828;-87
2021/08/25 09:39:45;;;;;;;12.10;7.05;;;;;;;14.61;68.51;97463.36;1652840;85;25789;-85
2021/08/25 09:42:16;;;;;;;13.28;7.55;;;;;;;14.63;68.89;97459.06;1651374;86;25820;-85
2021/08/25 09:44:44;;;;;;;14.10;7.37;;;;;;;14.62;67.62;97454.16;1651286;86;28046;-87
2021/08/25 09:47:11;;;;;;;12.23;7.10;;;;;;;14.55;67.62;97457.53;1656263;85;25890;-87
2021/08/25 09:49:38;;;;;;;13.28;7.78;;;;;;;14.57;68.28;97458.66;1656331;85;25353;-86
2021/08/25 09:52:06;;;;;;;13.13;7.45;;;;;;;14.64;68.46;97456.11;1656228;85;25853;-82
2021/08/25 09:54:33;;;;;;;14.23;6.97;;;;;;;14.74;68.14;97450.91;1656208;85;26805;-85
2021/08/25 09:56:59;;;;;;;14.55;7.28;;;;;;;14.82;67.78;97451.63;1656408;85;27375;-85
2021/08/25 09:59:26;;;;;;;13.28;6.90;;;;;;;14.88;67.56;97446.06;1656468;85;25816;-86
2021/08/25 10:01:54;;;;;;;12.65;6.62;;;;;;;14.97;66.84;97443.83;1656351;85;25818;-88
2021/08/25 10:04:20;;;;;;;14.47;7.53;;;;;;;15.10;66.92;97436.75;1656264;85;26690;-86
2021/08/25 10:06:49;;;;;;;9.98;6.92;;;;;;;15.28;67.26;97435.25;1656278;85;25733;-85
2021/08/25 10:09:17;;;;;;;12.20;7.40;;;;;;;15.64;67.38;97434.09;1656317;85;28647;-86
2021/08/25 10:11:48;;;;;;;15.03;7.60;;;;;;;16.13;66.12;97428.47;1657855;84;25812;-81
2021/08/25 10:14:16;;;;;;;12.05;7.30;;;;;;;16.59;65.90;97430.57;1663847;84;25799;-84
2021/08/25 10:16:50;;;;;;;12.15;7.58;;;;;;;16.89;64.96;97425.63;1664767;84;25843;-86
2021/08/25 10:19:38;;;;;;;15.25;7.33;;;;;;;16.92;63.92;97425.09;1664936;84;25794;-82
2021/08/25 10:22:19;;;;;;;14.50;8.55;;;;;;;16.99;63.55;97419.48;1665254;84;28199;-85
2021/08/25 10:25:05;;;;;;;12.30;7.75;;;;;;;17.04;63.36;97415.98;1665156;84;25854;-85
2021/08/25 10:27:34;;;;;;;11.00;7.17;;;;;;;17.09;63.25;97407.34;1665087;84;25720;-85
2021/08/25 10:30:11;;;;;;;12.07;7.95;;;;;;;17.17;62.56;97408.26;1665101;84;26453;-87
2021/08/25 10:32:58;;;;;;;12.95;7.45;;;;;;;17.13;62.19;97409.03;1665092;84;25772;-88
2021/08/25 10:35:33;;;;;;;11.40;7.62;;;;;;;17.03;62.61;97408.87;1665148;84;27470;-88
2021/08/25 10:38:28;;;;;;;14.95;8.28;;;;;;;17.06;62.41;97403.75;1665104;84;25860;-86
2021/08/25 10:41:01;;;;;;;13.80;8.68;;;;;;;17.05;62.52;97410.81;1665097;84;25823;-88
2021/08/25 10:43:43;;;;;;;17.17;8.85;;;;;;;17.08;62.43;97399.41;1633338;84;26217;-87
2021/08/25 10:46:17;;;;;;;14.60;8.50;;;;;;;17.09;61.88;97398.34;1665274;84;25676;-86
2021/08/25 10:48:48;;;;;;;15.32;8.70;;;;;;;17.02;62.05;97399.08;1665136;84;27399;-86
2021/08/25 10:51:33;;;;;;;12.53;8.23;;;;;;;17.05;61.89;97395.81;1664906;84;25914;-86
2021/08/25 10:54:11;;;;;;;16.70;8.65;;;;;;;17.07;61.15;97389.04;1665191;84;25799;-86
2021/08/25 10:56:42;;;;;;;16.85;8.83;;;;;;;17.08;60.82;97389.86;1665069;84;25758;-88
2021/08/25 10:59:16;;;;;;;13.58;8.28;;;;;;;17.09;61.07;97387.42;1664715;84;25796;-87
2021/08/25 11:01:48;;;;;;;15.13;8.45;;;;;;;17.19;60.88;97380.73;1664661;84;27375;-87
2021/08/25 11:04:23;;;;;;;13.80;8.10;;;;;;;17.36;60.60;97376.04;1665344;84;25776;-88
2021/08/25 11:06:56;;;;;;;16.55;8.08;;;;;;;17.43;60.24;97369.83;1665228;84;25840;-88
2021/08/25 11:09:43;;;;;;;13.95;8.45;;;;;;;17.54;60.00;97372.95;1665199;84;34810;-87
2021/08/25 11:12:16;;;;;;;18.77;8.60;;;;;;;17.59;59.83;97364.84;1664746;84;25349;-86
2021/08/25 11:14:52;;;;;;;12.68;8.48;;;;;;;17.60;59.51;97370.58;1664841;84;27437;-86
2021/08/25 11:17:25;;;;;;;12.50;7.72;;;;;;;17.66;59.19;97370.65;1664913;84;26452;-86
2021/08/25 11:20:08;;;;;;;12.93;7.95;;;;;;;17.89;59.82;97362.14;1665155;84;25719;-86
2021/08/25 11:22:38;;;;;;;13.22;8.33;;;;;;;18.15;59.22;97359.92;1665142;84;25704;-85
2021/08/25 11:25:16;;;;;;;16.77;9.85;;;;;;;18.40;58.89;97357.10;1665174;84;25764;-87
2021/08/25 11:27:49;;;;;;;15.78;8.53;;;;;;;18.30;57.74;97357.31;1665071;84;27471;-87
2021/08/25 11:30:29;;;;;;;14.98;8.08;;;;;;;18.14;57.69;97348.71;1665143;84;25864;-87
2021/08/25 11:33:05;;;;;;;15.68;8.88;;;;;;;18.28;58.70;97348.55;1665127;84;25264;-88
2021/08/25 11:35:44;;;;;;;12.63;8.40;;;;;;;18.51;59.13;97352.81;1665082;84;26098;-82